Spring Valley, Texas
Current Conditions -  °F | °C
As of 2:35 PM on Saturday 20 Dec 2014 (Local Time) from KMCJ Reporting Station
Overcast Overcast  
Wind Chill: 54°   Ceiling: 1000
Heat Index: 54°   Visibility: NA
Dew Point: 48°   Wind: 10mph
Humidity: 82%   Direction: 350°N
Pressure: 30.12"   Gusts: NA
Location:  29.7698°N, 95.5164°W
Report Text: KMCJ 202035Z AUTO 35009KT OVC010 12/09 A3012 RMK AO1
Loading
Personal Weather Stations






























Interactive Weather Map New forecast layout! Learn more

10-Day Weather Forecast

Advertisements
Track Severe Weather on mobile